Time;durP1;ratioP1;P1;durP2;ratioP2;P2;SDS_P1;SDS_P2;PMS_P1;PMS_P2;Temp;Humidity;BMP_temperature;BMP_pressure;BME280_temperature;BME280_humidity;BME280_pressure;Samples;Min_cycle;Max_cycle;Signal;HPM_P1;HPM_P2
2024/03/13 00:05:51;;;;;;;16.8;9.2;;;;;;;7.76;92.13;98346.666666667;;;;
2024/03/13 00:15:51;;;;;;;11.7;6.5;;;;;;;7.63;92.45;98356.666666667;;;;
2024/03/13 00:26:51;;;;;;;11.7;6.5;;;;;;;7.66;92.26;98355;;;;
2024/03/13 00:37:51;;;;;;;11.7;6.5;;;;;;;7.64;92.25;98356.666666667;;;;
2024/03/13 00:47:54;;;;;;;12.5;6.5;;;;;;;7.54;92.37;98358.333333333;;;;
2024/03/13 00:58:52;;;;;;;12.5;6.5;;;;;;;7.53;92.17;98358.333333333;;;;
2024/03/13 01:08:51;;;;;;;12.5;6.5;;;;;;;7.48;92.3;98366.666666667;;;;
2024/03/13 01:19:51;;;;;;;8.9;4.9;;;;;;;7.5;92.25;98366.666666667;;;;
2024/03/13 01:30:51;;;;;;;8.9;4.9;;;;;;;7.5;92.12;98366.666666667;;;;
2024/03/13 02:02:25;;;;;;;13.6;5.8;;;;;;;7.4;92.07;98378.333333333;;;;
2024/03/13 02:12:51;;;;;;;6.8;4.3;;;;;;;7.24;92.45;98380;;;;
2024/03/13 02:22:51;;;;;;;6.8;4.3;;;;;;;7.27;92.37;98385;;;;
2024/03/13 02:32:52;;;;;;;6.8;4.3;;;;;;;7.15;92.54;98390;;;;
2024/03/13 02:42:53;;;;;;;7.5;3.7;;;;;;;7.18;92.37;98390;;;;
2024/03/13 02:53:51;;;;;;;7.5;3.7;;;;;;;7.17;92.53;98386.666666667;;;;
2024/03/13 03:03:51;;;;;;;7.5;3.7;;;;;;;7.12;92.63;98396.666666667;;;;
2024/03/13 03:14:51;;;;;;;9.5;5.1;;;;;;;7.2;92.71;98395;;;;
2024/03/13 03:24:51;;;;;;;9.5;5.1;;;;;;;7.19;92.27;98405;;;;
2024/03/13 03:34:51;;;;;;;9.5;5.1;;;;;;;7.15;92.33;98405;;;;
2024/03/13 03:44:53;;;;;;;8.9;4.9;;;;;;;7.05;92.3;98408.333333333;;;;
2024/03/13 03:54:51;;;;;;;8.9;4.9;;;;;;;7.17;92.02;98411.666666667;;;;
2024/03/13 04:05:51;;;;;;;8.9;4.9;;;;;;;7.08;91.93;98410;;;;
2024/03/13 04:15:53;;;;;;;10.3;5.7;;;;;;;7.12;91.97;98416.666666667;;;;
2024/03/13 04:25:52;;;;;;;10.3;5.7;;;;;;;6.94;92.25;98421.666666667;;;;
2024/03/13 04:35:52;;;;;;;10.3;5.7;;;;;;;7.01;92.21;98425;;;;
2024/03/13 04:46:51;;;;;;;13.1;6.6;;;;;;;6.83;92.66;98426.666666667;;;;
2024/03/13 04:57:51;;;;;;;13.1;6.6;;;;;;;6.8;92.56;98435;;;;
2024/03/13 05:08:51;;;;;;;13.1;6.6;;;;;;;6.8;92.56;98446.666666667;;;;
2024/03/13 05:18:52;;;;;;;12;6.1;;;;;;;6.72;92.86;98456.666666667;;;;
2024/03/13 05:28:51;;;;;;;12;6.1;;;;;;;6.73;92.94;98461.666666667;;;;
2024/03/13 05:39:52;;;;;;;12;6.1;;;;;;;6.83;92.93;98471.666666667;;;;
2024/03/13 05:49:51;;;;;;;11.2;6.4;;;;;;;6.82;92.69;98483.333333333;;;;
2024/03/13 06:00:52;;;;;;;11.2;6.4;;;;;;;6.78;92.71;98488.333333333;;;;
2024/03/13 06:10:51;;;;;;;10.6;5.2;;;;;;;6.77;92.74;98500;;;;
2024/03/13 06:20:51;;;;;;;10.6;5.2;;;;;;;6.91;92.6;98511.666666667;;;;
2024/03/13 06:30:51;;;;;;;10.6;5.2;;;;;;;6.98;92.39;98521.666666667;;;;
2024/03/13 06:41:51;;;;;;;9;4.4;;;;;;;6.92;92.39;98530;;;;
2024/03/13 06:51:52;;;;;;;9;4.4;;;;;;;7;92.54;98536.666666667;;;;
2024/03/13 07:01:52;;;;;;;9;4.4;;;;;;;6.98;92.04;98538.333333333;;;;
2024/03/13 07:12:51;;;;;;;9.1;5.9;;;;;;;7.13;91.75;98546.666666667;;;;
2024/03/13 07:23:52;;;;;;;9.1;5.9;;;;;;;7.38;91.29;98551.666666667;;;;
2024/03/13 07:33:51;;;;;;;9.1;5.9;;;;;;;7.39;90.94;98560;;;;
2024/03/13 07:44:51;;;;;;;9.7;6;;;;;;;7.59;90.52;98565;;;;
2024/03/13 07:54:52;;;;;;;9.7;6;;;;;;;7.83;90.4;98570;;;;
2024/03/13 08:05:51;;;;;;;9.7;6;;;;;;;7.87;89.82;98571.666666667;;;;
2024/03/13 08:16:52;;;;;;;10.2;6;;;;;;;8.11;88.96;98580;;;;
2024/03/13 08:26:51;;;;;;;10.2;6;;;;;;;7.86;88.9;98583.333333333;;;;
2024/03/13 08:37:51;;;;;;;10.2;6;;;;;;;7.9;88.61;98590;;;;
2024/03/13 08:47:52;;;;;;;8.9;4.8;;;;;;;8.09;88.41;98593.333333333;;;;
2024/03/13 08:52:18;;;;;;;8.9;4.8;;;;;;;8.11;88.11;98598.333333333;;;;
2024/03/13 09:02:17;;;;;;;8.9;4.8;;;;;;;8.14;87.02;98606.666666667;;;;
2024/03/13 09:12:18;;;;;;;7.6;3.7;;;;;;;8.09;87.71;98611.666666667;;;;
2024/03/13 09:22:18;;;;;;;7.6;3.7;;;;;;;8.22;87.95;98618.333333333;;;;
2024/03/13 09:32:17;;;;;;;7.6;3.7;;;;;;;8.2;87.22;98628.333333333;;;;
2024/03/13 09:42:17;;;;;;;7.2;3.6;;;;;;;8.16;87.34;98636.666666667;;;;
2024/03/13 09:53:17;;;;;;;7.2;3.6;;;;;;;8.18;87.41;98640;;;;
2024/03/13 10:03:17;;;;;;;;;;;;;;;;;98645;;;;
2024/03/13 10:14:17;;;;;;;;;;;;;;;;;98650;;;;
2024/03/13 10:25:19;;;;;;;8.1;4.7;;;;;;;8.17;87.43;98658.333333333;;;;
2024/03/13 10:36:18;;;;;;;8.1;4.7;;;;;;;8.16;87.26;98665;;;;
2024/03/13 10:47:17;;;;;;;8.1;4.7;;;;;;;8.06;87.37;98661.666666667;;;;
2024/03/13 10:57:17;;;;;;;8.8;5.3;;;;;;;7.98;87.81;98665;;;;
2024/03/13 11:07:18;;;;;;;8.8;5.3;;;;;;;7.99;88.4;98665;;;;
2024/03/13 11:17:17;;;;;;;8.8;5.3;;;;;;;8.04;88.03;98670;;;;
2024/03/13 11:28:17;;;;;;;10.9;5.7;;;;;;;7.91;87.91;98663.333333333;;;;
2024/03/13 11:38:17;;;;;;;10.9;5.7;;;;;;;7.88;88.14;98660;;;;
2024/03/13 11:48:17;;;;;;;10.9;5.7;;;;;;;7.97;87.67;98656.666666667;;;;
2024/03/13 11:58:17;;;;;;;12.3;8.3;;;;;;;7.98;87.18;98660;;;;
2024/03/13 12:09:18;;;;;;;12.3;8.3;;;;;;;7.99;87.27;98655;;;;
2024/03/13 12:20:18;;;;;;;15.9;10.1;;;;;;;7.92;86.9;98650;;;;
2024/03/13 12:30:18;;;;;;;15.9;10.1;;;;;;;8.01;87.32;98656.666666667;;;;
2024/03/13 12:40:17;;;;;;;15.9;10.1;;;;;;;8.09;86.73;98660;;;;
2024/03/13 12:50:17;;;;;;;17.3;10.3;;;;;;;8.07;86.81;98658.333333333;;;;
2024/03/13 13:00:18;;;;;;;17.3;10.3;;;;;;;8.06;86.91;98656.666666667;;;;
2024/03/13 13:11:18;;;;;;;17.3;10.3;;;;;;;7.97;87.07;98661.666666667;;;;
2024/03/13 13:21:17;;;;;;;22.4;12.2;;;;;;;7.91;87.45;98663.333333333;;;;
2024/03/13 13:32:17;;;;;;;22.4;12.2;;;;;;;7.95;87.76;98670;;;;
2024/03/13 13:43:17;;;;;;;22.4;12.2;;;;;;;7.99;87.55;98675;;;;
2024/03/13 13:54:18;;;;;;;27.2;15.7;;;;;;;8.11;87.65;98676.666666667;;;;
2024/03/13 14:05:17;;;;;;;27.2;15.7;;;;;;;8.56;87.41;98673.333333333;;;;
2024/03/13 14:15:17;;;;;;;27.2;15.7;;;;;;;8.87;84.85;98680;;;;
2024/03/13 14:26:17;;;;;;;24.3;13.6;;;;;;;9.1;83.62;98683.333333333;;;;
2024/03/13 14:36:18;;;;;;;24.3;13.6;;;;;;;9.22;84.26;98678.333333333;;;;
2024/03/13 14:46:19;;;;;;;24.3;13.6;;;;;;;9.4;82.38;98693.333333333;;;;
2024/03/13 14:56:17;;;;;;;24.1;14.6;;;;;;;9.46;81.58;98700;;;;
2024/03/13 15:07:17;;;;;;;24.1;14.6;;;;;;;9.51;80.72;98706.666666667;;;;
2024/03/13 15:18:17;;;;;;;24.1;14.6;;;;;;;9.67;80.81;98710;;;;
2024/03/13 15:29:17;;;;;;;19.7;12.4;;;;;;;9.63;81.62;98708.333333333;;;;
2024/03/13 15:40:19;;;;;;;19.7;12.4;;;;;;;9.7;79.69;98708.333333333;;;;
2024/03/13 15:50:18;;;;;;;17.3;11.2;;;;;;;9.75;80.17;98716.666666667;;;;
2024/03/13 16:00:18;;;;;;;17.3;11.2;;;;;;;9.73;80.65;98710;;;;
2024/03/13 16:11:17;;;;;;;17.3;11.2;;;;;;;9.36;80.06;98713.333333333;;;;
2024/03/13 16:22:17;;;;;;;16.3;11.2;;;;;;;9.2;80.03;98726.666666667;;;;
2024/03/13 16:32:19;;;;;;;16.3;11.2;;;;;;;9.16;80.44;98733.333333333;;;;
2024/03/13 16:42:17;;;;;;;16.3;11.2;;;;;;;8.95;81.21;98738.333333333;;;;
2024/03/13 16:53:17;;;;;;;18.8;10.4;;;;;;;8.69;81.83;98745;;;;
2024/03/13 17:03:17;;;;;;;18.8;10.4;;;;;;;8.52;82.59;98746.666666667;;;;
2024/03/13 17:13:17;;;;;;;18.8;10.4;;;;;;;8.44;82.82;98748.333333333;;;;
2024/03/13 17:23:17;;;;;;;17.5;10.6;;;;;;;8.31;83.25;98750;;;;
2024/03/13 17:34:18;;;;;;;17.5;10.6;;;;;;;8.2;83.84;98760;;;;
2024/03/13 17:45:19;;;;;;;17.5;10.6;;;;;;;8;84.02;98758.333333333;;;;
2024/03/13 17:56:17;;;;;;;19.2;11.3;;;;;;;7.96;84.31;98750;;;;
2024/03/13 18:07:17;;;;;;;19.2;11.3;;;;;;;7.87;84.38;98755;;;;
2024/03/13 18:17:17;;;;;;;19.2;11.3;;;;;;;7.72;85.43;98758.333333333;;;;
2024/03/13 18:28:17;;;;;;;27.2;15.8;;;;;;;7.76;85.88;98763.333333333;;;;
2024/03/13 18:38:18;;;;;;;27.2;15.8;;;;;;;7.68;85.69;98775;;;;
2024/03/13 18:49:17;;;;;;;27.2;15.8;;;;;;;7.66;85.79;98770;;;;
2024/03/13 19:00:21;;;;;;;43;26.4;;;;;;;7.65;85.73;98781.666666667;;;;
2024/03/13 19:10:19;;;;;;;43;26.4;;;;;;;7.59;86.11;98776.666666667;;;;
2024/03/13 19:20:17;;;;;;;42.9;25.2;;;;;;;7.59;85.93;98786.666666667;;;;
2024/03/13 19:30:17;;;;;;;42.9;25.2;;;;;;;7.57;85.25;98793.333333333;;;;
2024/03/13 19:41:18;;;;;;;42.9;25.2;;;;;;;7.49;86.05;98815;;;;
2024/03/13 19:52:18;;;;;;;34.6;20.5;;;;;;;7.42;86.28;98816.666666667;;;;
2024/03/13 20:03:17;;;;;;;34.6;20.5;;;;;;;7.44;86.83;98808.333333333;;;;
2024/03/13 20:14:19;;;;;;;34.6;20.5;;;;;;;7.31;87.41;98815;;;;
2024/03/13 20:24:17;;;;;;;36.3;21;;;;;;;7.42;86.93;98808.333333333;;;;
2024/03/13 20:34:17;;;;;;;36.3;21;;;;;;;7.38;86.52;98816.666666667;;;;
2024/03/13 20:45:19;;;;;;;36.3;21;;;;;;;7.32;86.65;98808.333333333;;;;
2024/03/13 20:56:19;;;;;;;34.5;20.6;;;;;;;7.35;86.83;98808.333333333;;;;
2024/03/13 21:07:17;;;;;;;34.5;20.6;;;;;;;7.39;86.67;98808.333333333;;;;
2024/03/13 21:17:17;;;;;;;34.5;20.6;;;;;;;7.39;86.74;98810;;;;
2024/03/13 21:28:17;;;;;;;32.9;20.6;;;;;;;7.35;86.55;98800;;;;
2024/03/13 21:39:21;;;;;;;32.9;20.6;;;;;;;7.31;86.87;98793.333333333;;;;
2024/03/13 21:50:17;;;;;;;41.8;21.7;;;;;;;7.23;87.07;98786.666666667;;;;
2024/03/13 22:00:21;;;;;;;41.8;21.7;;;;;;;7.22;87.06;98781.666666667;;;;
2024/03/13 22:11:17;;;;;;;41.8;21.7;;;;;;;6.99;86.83;98773.333333333;;;;
2024/03/13 22:21:17;;;;;;;37.4;22.7;;;;;;;6.89;87.34;98766.666666667;;;;
2024/03/13 22:31:17;;;;;;;37.4;22.7;;;;;;;6.64;87.21;98763.333333333;;;;
2024/03/13 22:41:19;;;;;;;37.4;22.7;;;;;;;6.34;86.81;98776.666666667;;;;
2024/03/13 22:52:18;;;;;;;35.2;21.3;;;;;;;5.87;86.87;98770;;;;
2024/03/13 23:03:17;;;;;;;35.2;21.3;;;;;;;5.36;87.03;98781.666666667;;;;
2024/03/13 23:14:19;;;;;;;35.2;21.3;;;;;;;5.19;89.47;98801.666666667;;;;
2024/03/13 23:24:17;;;;;;;37;20.4;;;;;;;5.41;90.27;98796.666666667;;;;
2024/03/13 23:34:19;;;;;;;37;20.4;;;;;;;5.56;90.36;98806.666666667;;;;
2024/03/13 23:45:18;;;;;;;37;20.4;;;;;;;5.43;89.7;98786.666666667;;;;
2024/03/13 23:56:18;;;;;;;52.8;28.2;;;;;;;5.02;90.09;98786.666666667;;;;
